RO-0007 weather

Aerodromul Săulești
Deva, Gorj, Romania

Public forecast

Using degrees Celsius for public forecast. Weather courtesy of forecast.io.

METAR (pilot weather report)

Closest report is Sibiu International Airport, 47.4 nm (87.7 km) E. Retrieved 2019/08/24 10:30 UTC (0 seconds ago):

LRSB 241030Z 11005KT 040V150 9999 FEW049 29/14 Q1023

TAF (pilot weather forecast)

Closest forecast is Sibiu International Airport, 47.4 nm (87.7 km) E. Retrieved 2019/08/24 06:37 UTC (4 hours ago):

TAF LRSB 240500Z 2406/2506 VRB04KT CAVOK TEMPO 2411/2415 12010KT